AirportWindKnotsOPERATIONSMETAR
KBWI1301015R(D) 10(A) 15L(A/D)-PROPS KBWI 231654Z 13010G17KT 10SM SCT029 SCT055 BKN160 BKN250 23/18 A3013 RMK AO2 SLP201 T02280178
KDCA1501119 (D/A) 15 (D/A)-RJ/PROPS KDCA 231652Z 15011KT 10SM SCT024 OVC250 24/18 A3012 RMK AO2 SLP198 T02390178
KIAD160121L/1C/1R (D) 12 (A) KIAD 231652Z 16012G18KT 10SM SCT024 BKN038 BKN150 23/17 A3010 RMK AO2 SLP192 T02280167
KRDU160923L/23R (D/A) KRDU 231651Z 16009KT 10SM FEW020 BKN048 BKN110 23/19 A3006 RMK AO2 SLP174 T02330194



The information contained on all pages of this website is to be used for flight simulation purposes only on the VATSIM network. It is not intended nor should it be used for real world navigation.This site is not affiliated with the FAA, the actual Washington Center or any governing aviation body. All content contained herein is approved only for use on the VATSIM network. ©2016 Virtual Washington ARTCC -- Source Code © 2016-2017 R. Rump, R. Murphy, W. Guisbond. Some scripts provided by VATEUD and VATUSA. Logo icons created by the Noun Project, CC 17.